Time;durP1;ratioP1;P1;durP2;ratioP2;P2;SDS_P1;SDS_P2;PMS_P1;PMS_P2;Temp;Humidity;BMP_temperature;BMP_pressure;BME280_temperature;BME280_humidity;BME280_pressure;Samples;Min_cycle;Max_cycle;Signal;HPM_P1;HPM_P2
2023/04/08 00:01:26;;;;;;;10.23;6.07;;;4.30;99.90;;;;;;4878801;29;20140;-78
2023/04/08 00:03:52;;;;;;;12.63;6.55;;;4.30;99.90;;;;;;4868077;29;20040;-77
2023/04/08 00:06:19;;;;;;;12.30;6.30;;;4.20;99.90;;;;;;4860367;29;20057;-78
2023/04/08 00:08:46;;;;;;;10.75;6.10;;;4.80;99.90;;;;;;4865628;29;20049;-77
2023/04/08 00:11:12;;;;;;;11.43;6.25;;;4.30;99.90;;;;;;4881924;29;20045;-78
2023/04/08 00:13:39;;;;;;;13.25;7.07;;;4.20;99.90;;;;;;4896995;29;20080;-78
2023/04/08 00:16:06;;;;;;;13.23;6.50;;;4.20;99.90;;;;;;4897067;29;20053;-78
2023/04/08 00:18:33;;;;;;;12.77;6.75;;;4.10;99.90;;;;;;4869438;29;20103;-77
2023/04/08 00:21:00;;;;;;;11.18;6.55;;;4.20;99.90;;;;;;4865900;29;20076;-77
2023/04/08 00:23:26;;;;;;;11.38;6.30;;;4.10;99.90;;;;;;4895969;29;20044;-78
2023/04/08 00:25:53;;;;;;;11.95;6.85;;;4.10;99.90;;;;;;4881082;29;20127;-77
2023/04/08 00:28:20;;;;;;;10.38;6.30;;;4.10;99.90;;;;;;4884816;29;20099;-77
2023/04/08 00:30:47;;;;;;;11.07;6.40;;;4.00;99.90;;;;;;4882649;29;20159;-77
2023/04/08 00:33:14;;;;;;;11.68;6.47;;;4.00;99.90;;;;;;4881009;29;20070;-77
2023/04/08 00:35:40;;;;;;;11.80;6.93;;;4.00;99.90;;;;;;4880735;29;20045;-77
2023/04/08 00:38:08;;;;;;;11.43;6.15;;;3.90;99.90;;;;;;4876609;29;20045;-77
2023/04/08 00:40:35;;;;;;;12.40;6.55;;;3.90;99.90;;;;;;4879528;29;20042;-77
2023/04/08 00:43:02;;;;;;;11.65;6.80;;;3.80;99.90;;;;;;4896353;29;20067;-77
2023/04/08 00:45:29;;;;;;;11.82;6.72;;;3.80;99.90;;;;;;4880762;29;20258;-77
2023/04/08 00:47:59;;;;;;;14.35;6.70;;;3.70;99.90;;;;;;4865626;29;20049;-77
2023/04/08 00:50:26;;;;;;;14.35;7.03;;;3.80;99.90;;;;;;4861891;29;20045;-77
2023/04/08 00:52:52;;;;;;;11.70;6.35;;;3.70;99.90;;;;;;4893087;29;20052;-78
2023/04/08 00:55:22;;;;;;;11.45;6.50;;;3.70;99.90;;;;;;4862777;29;20503;-77
2023/04/08 00:57:49;;;;;;;12.20;6.97;;;3.60;99.90;;;;;;4877840;29;20494;-77
2023/04/08 01:00:16;;;;;;;12.27;6.75;;;3.60;99.90;;;;;;4874246;29;20050;-77
2023/04/08 01:02:58;;;;;;;12.25;6.78;;;3.60;99.90;;;;;;4844272;29;20122;-77
2023/04/08 01:05:31;;;;;;;11.55;7.03;;;3.50;99.90;;;;;;4874255;29;20098;-77
2023/04/08 01:08:00;;;;;;;12.32;7.15;;;3.50;99.90;;;;;;4874582;29;20053;-77
2023/04/08 01:10:33;;;;;;;13.15;7.25;;;3.50;99.90;;;;;;4859358;29;20134;-77
2023/04/08 01:13:13;;;;;;;14.52;7.10;;;3.50;99.90;;;;;;4874266;29;20085;-77
2023/04/08 01:15:43;;;;;;;12.15;7.07;;;3.40;99.90;;;;;;4874155;29;20541;-77
2023/04/08 01:18:14;;;;;;;14.32;7.53;;;3.40;99.90;;;;;;4874258;29;20049;-77
2023/04/08 01:20:43;;;;;;;12.80;7.15;;;3.40;99.90;;;;;;4867925;29;20790;-77
2023/04/08 01:23:47;;;;;;;12.23;7.55;;;3.40;99.90;;;;;;4877629;29;20053;-77
2023/04/08 01:26:22;;;;;;;12.52;7.63;;;3.40;99.90;;;;;;4892640;29;20506;-77
2023/04/08 01:28:56;;;;;;;13.27;7.88;;;3.40;99.90;;;;;;4877156;29;20078;-77
2023/04/08 01:31:25;;;;;;;14.35;7.95;;;3.60;99.90;;;;;;4877064;29;20137;-77
2023/04/08 01:33:52;;;;;;;13.90;7.50;;;3.40;99.90;;;;;;4877110;29;20498;-77
2023/04/08 01:36:20;;;;;;;13.73;7.85;;;4.00;99.90;;;;;;4877786;29;20051;-77
2023/04/08 01:38:48;;;;;;;13.38;7.80;;;3.40;99.90;;;;;;4876936;29;20057;-77
2023/04/08 01:41:17;;;;;;;14.20;8.15;;;3.50;99.90;;;;;;4876815;29;20076;-77
2023/04/08 01:43:44;;;;;;;13.75;7.65;;;3.50;99.90;;;;;;4877137;29;20096;-77
2023/04/08 01:46:12;;;;;;;13.80;7.70;;;3.50;99.90;;;;;;4877075;29;20068;-77
2023/04/08 01:48:39;;;;;;;14.40;8.82;;;3.50;99.90;;;;;;4876826;29;20053;-77
2023/04/08 01:51:07;;;;;;;13.45;8.27;;;3.50;99.90;;;;;;4877120;29;20414;-77
2023/04/08 01:53:34;;;;;;;18.52;8.77;;;3.40;99.90;;;;;;4876835;29;20124;-77
2023/04/08 01:56:06;;;;;;;14.20;8.68;;;3.50;99.90;;;;;;4858851;29;20171;-77
2023/04/08 01:58:49;;;;;;;16.17;9.10;;;3.50;99.90;;;;;;4858638;29;20053;-77
2023/04/08 02:01:18;;;;;;;16.92;9.18;;;3.50;99.90;;;;;;4891088;29;20065;-77
2023/04/08 02:03:46;;;;;;;14.63;8.73;;;3.50;99.90;;;;;;4891888;29;20048;-77
2023/04/08 02:06:13;;;;;;;17.17;8.85;;;3.50;99.90;;;;;;4866143;29;20100;-78
2023/04/08 02:08:39;;;;;;;16.13;9.25;;;3.60;99.90;;;;;;4894763;29;20085;-77
2023/04/08 02:11:06;;;;;;;17.50;9.02;;;3.60;99.90;;;;;;4848928;29;20388;-77
2023/04/08 02:13:33;;;;;;;15.07;8.85;;;4.00;99.90;;;;;;4857792;29;20384;-77
2023/04/08 02:16:14;;;;;;;17.95;10.23;;;3.70;99.90;;;;;;4870348;29;20493;-77
2023/04/08 02:18:50;;;;;;;16.80;9.82;;;3.70;99.90;;;;;;4894793;29;20052;-78
2023/04/08 02:21:19;;;;;;;20.95;10.05;;;3.80;99.90;;;;;;4894277;29;20045;-77
2023/04/08 02:23:50;;;;;;;15.95;9.45;;;3.70;99.90;;;;;;4894528;29;20044;-77
2023/04/08 02:26:18;;;;;;;17.55;9.93;;;3.70;99.90;;;;;;4894731;29;20047;-77
2023/04/08 02:28:47;;;;;;;18.13;10.30;;;3.80;99.90;;;;;;4879191;29;20120;-77
2023/04/08 02:31:17;;;;;;;19.73;10.13;;;3.80;99.90;;;;;;4870127;29;20077;-77
2023/04/08 02:33:45;;;;;;;16.88;10.02;;;3.80;99.90;;;;;;4873241;29;20046;-78
2023/04/08 02:36:13;;;;;;;21.10;10.38;;;3.90;99.90;;;;;;4858129;29;20046;-77
2023/04/08 02:38:40;;;;;;;18.98;10.80;;;3.90;99.90;;;;;;4873102;29;20046;-77
2023/04/08 02:41:06;;;;;;;17.33;10.40;;;3.90;99.90;;;;;;4873195;29;20053;-77
2023/04/08 02:43:33;;;;;;;16.30;9.77;;;4.30;99.90;;;;;;4861177;29;20080;-77
2023/04/08 02:46:02;;;;;;;19.83;10.65;;;3.90;99.90;;;;;;4875728;29;20060;-77
2023/04/08 02:48:30;;;;;;;16.85;10.32;;;3.90;99.90;;;;;;4861202;29;20110;-77
2023/04/08 02:50:56;;;;;;;20.15;10.57;;;3.90;99.90;;;;;;4875772;29;20045;-77
2023/04/08 02:53:23;;;;;;;20.33;11.55;;;3.90;99.90;;;;;;4860949;29;20120;-77
2023/04/08 02:55:50;;;;;;;22.15;11.23;;;3.90;99.90;;;;;;4876221;29;20045;-77
2023/04/08 02:58:17;;;;;;;18.40;10.70;;;3.90;99.90;;;;;;4861193;29;20045;-77
2023/04/08 03:00:44;;;;;;;19.25;11.18;;;3.90;99.90;;;;;;4876192;29;20086;-77
2023/04/08 03:03:11;;;;;;;20.98;11.02;;;3.90;99.90;;;;;;4875865;29;20125;-77
2023/04/08 03:05:37;;;;;;;21.27;11.35;;;3.90;99.90;;;;;;4876307;29;20046;-77
2023/04/08 03:08:05;;;;;;;19.17;11.13;;;4.00;99.90;;;;;;4860486;29;20050;-78
2023/04/08 03:10:32;;;;;;;19.58;11.23;;;3.90;99.90;;;;;;4860901;29;20049;-78
2023/04/08 03:12:58;;;;;;;18.67;10.70;;;3.90;99.90;;;;;;4875611;29;20045;-78
2023/04/08 03:15:26;;;;;;;18.42;10.48;;;3.90;99.90;;;;;;4875986;29;20509;-77
2023/04/08 03:17:52;;;;;;;20.20;11.00;;;3.90;99.90;;;;;;4876084;29;20097;-77
2023/04/08 03:20:19;;;;;;;20.58;10.90;;;3.90;99.90;;;;;;4847635;29;20132;-78
2023/04/08 03:22:46;;;;;;;20.23;11.20;;;3.80;99.90;;;;;;4878940;29;20044;-78
2023/04/08 03:25:13;;;;;;;22.85;11.43;;;3.90;99.90;;;;;;4863417;29;20549;-77
2023/04/08 03:27:39;;;;;;;19.05;11.02;;;4.10;99.90;;;;;;4860902;29;20464;-77
2023/04/08 03:30:07;;;;;;;20.17;10.98;;;4.20;99.90;;;;;;4875663;29;20095;-77
2023/04/08 03:32:33;;;;;;;19.42;10.75;;;3.80;99.90;;;;;;4890859;29;20132;-77
2023/04/08 03:35:00;;;;;;;21.88;11.85;;;3.80;99.90;;;;;;4857414;29;20470;-77
2023/04/08 03:37:27;;;;;;;21.52;11.38;;;3.80;99.90;;;;;;4845165;29;20057;-77
2023/04/08 03:39:54;;;;;;;18.98;10.85;;;4.00;99.90;;;;;;4875394;29;20050;-78
2023/04/08 03:42:22;;;;;;;21.38;11.75;;;3.70;99.90;;;;;;4860327;29;20045;-77
2023/04/08 03:44:48;;;;;;;20.67;11.40;;;3.70;99.90;;;;;;4875404;29;20052;-77
2023/04/08 03:47:15;;;;;;;18.23;10.40;;;4.10;99.90;;;;;;4860251;29;20037;-77
2023/04/08 03:49:42;;;;;;;21.08;11.18;;;3.70;99.90;;;;;;4875744;29;20128;-77
2023/04/08 03:52:08;;;;;;;20.35;11.70;;;3.70;99.90;;;;;;4875428;29;20045;-77
2023/04/08 03:54:35;;;;;;;18.10;10.68;;;3.60;99.90;;;;;;4909121;29;20041;-77
2023/04/08 03:57:02;;;;;;;20.05;11.55;;;3.80;99.90;;;;;;4864656;29;20379;-78
2023/04/08 03:59:28;;;;;;;19.30;10.82;;;3.60;99.90;;;;;;4860344;29;20069;-77
2023/04/08 04:01:55;;;;;;;20.88;11.02;;;3.60;99.90;;;;;;4862037;29;20041;-77
2023/04/08 04:04:22;;;;;;;22.52;11.30;;;4.10;99.90;;;;;;4882091;29;20188;-77
2023/04/08 04:06:49;;;;;;;22.15;12.02;;;3.50;99.90;;;;;;4897019;29;20057;-77
2023/04/08 04:09:15;;;;;;;21.50;11.90;;;3.50;99.90;;;;;;4863284;29;20049;-77
2023/04/08 04:11:42;;;;;;;19.60;11.10;;;3.50;99.90;;;;;;4860544;29;20042;-77
2023/04/08 04:14:09;;;;;;;21.35;11.05;;;3.50;99.90;;;;;;4860145;29;20147;-77
2023/04/08 04:16:36;;;;;;;20.73;11.23;;;3.60;99.90;;;;;;4860356;29;20046;-78
2023/04/08 04:19:02;;;;;;;22.52;11.10;;;3.50;99.90;;;;;;4862677;29;20065;-77
2023/04/08 04:21:29;;;;;;;23.48;11.20;;;3.40;99.90;;;;;;4893639;29;20128;-78
2023/04/08 04:23:56;;;;;;;20.60;11.60;;;3.50;99.90;;;;;;4881488;29;20045;-77
2023/04/08 04:26:22;;;;;;;21.45;11.68;;;3.40;99.90;;;;;;4912302;29;20052;-77
2023/04/08 04:28:49;;;;;;;24.17;12.27;;;4.00;99.90;;;;;;4892599;29;20037;-77
2023/04/08 04:31:20;;;;;;;21.67;11.48;;;3.90;99.90;;;;;;4863084;29;20077;-77
2023/04/08 04:33:48;;;;;;;22.77;11.55;;;3.60;99.90;;;;;;4894136;29;20045;-77
2023/04/08 04:36:15;;;;;;;21.77;11.68;;;3.50;99.90;;;;;;4878430;29;20037;-77
2023/04/08 04:38:42;;;;;;;24.17;11.18;;;3.50;99.90;;;;;;4878405;29;20047;-77
2023/04/08 04:41:09;;;;;;;18.92;10.18;;;3.50;99.90;;;;;;4877718;29;20510;-77
2023/04/08 04:43:36;;;;;;;20.00;10.88;;;3.50;99.90;;;;;;4878132;29;20144;-78
2023/04/08 04:46:02;;;;;;;23.70;12.68;;;3.50;99.90;;;;;;4862159;29;20045;-77
2023/04/08 04:48:29;;;;;;;23.38;11.40;;;3.60;99.90;;;;;;4877929;29;20085;-77
2023/04/08 04:50:56;;;;;;;20.38;11.40;;;3.70;99.90;;;;;;4877300;29;20110;-77
2023/04/08 04:53:23;;;;;;;23.45;12.13;;;3.70;99.90;;;;;;4862268;29;20041;-77
2023/04/08 04:55:50;;;;;;;21.70;11.95;;;3.80;99.90;;;;;;4862922;29;20486;-77
2023/04/08 04:58:18;;;;;;;22.48;11.45;;;3.80;99.90;;;;;;4877383;29;20112;-77
2023/04/08 05:00:45;;;;;;;25.63;12.73;;;3.90;99.90;;;;;;4877391;29;20105;-77
2023/04/08 05:03:12;;;;;;;22.77;11.68;;;4.10;99.90;;;;;;4862543;29;20106;-77
2023/04/08 05:05:39;;;;;;;23.48;12.27;;;3.90;99.90;;;;;;4877663;29;20046;-77
2023/04/08 05:08:06;;;;;;;23.60;12.13;;;4.00;99.90;;;;;;4892584;29;20418;-77
2023/04/08 05:10:33;;;;;;;21.58;11.43;;;4.00;99.90;;;;;;4877509;29;20049;-78
2023/04/08 05:13:00;;;;;;;29.25;12.77;;;4.10;99.90;;;;;;4873947;29;20053;-77
2023/04/08 05:15:26;;;;;;;24.27;12.90;;;4.10;99.90;;;;;;4859435;29;20040;-77
2023/04/08 05:17:53;;;;;;;22.13;11.85;;;4.10;99.90;;;;;;4843898;29;20050;-78
2023/04/08 05:20:20;;;;;;;24.58;12.57;;;4.20;99.90;;;;;;4829215;29;20053;-77
2023/04/08 05:22:48;;;;;;;25.17;12.98;;;4.50;99.90;;;;;;4854895;29;20064;-78
2023/04/08 05:25:14;;;;;;;20.73;11.70;;;4.30;99.90;;;;;;4874015;29;20046;-78
2023/04/08 05:27:41;;;;;;;23.33;12.10;;;4.30;99.90;;;;;;4843661;29;20050;-78
2023/04/08 05:30:08;;;;;;;23.25;11.98;;;4.40;99.90;;;;;;4858838;29;20056;-77
2023/04/08 05:32:35;;;;;;;22.65;12.75;;;4.40;99.90;;;;;;4862291;29;20042;-77
2023/04/08 05:35:03;;;;;;;20.77;11.73;;;4.50;99.90;;;;;;4861879;29;20523;-77
2023/04/08 05:37:29;;;;;;;22.30;12.13;;;4.50;99.90;;;;;;4877188;29;20426;-78
2023/04/08 05:39:56;;;;;;;24.05;12.70;;;4.60;99.90;;;;;;4877459;29;20041;-78
2023/04/08 05:42:23;;;;;;;23.00;12.68;;;4.60;99.90;;;;;;4876788;29;20045;-78
2023/04/08 05:44:49;;;;;;;25.30;13.23;;;4.60;99.90;;;;;;4876847;29;20494;-77
2023/04/08 05:47:16;;;;;;;21.55;12.52;;;4.70;99.90;;;;;;4846338;29;20049;-77
2023/04/08 05:49:43;;;;;;;23.45;12.60;;;4.70;99.90;;;;;;4876787;29;20132;-77
2023/04/08 05:52:09;;;;;;;20.15;11.27;;;4.70;99.90;;;;;;4876630;29;20820;-77
2023/04/08 05:54:36;;;;;;;21.10;11.27;;;4.80;99.90;;;;;;4847328;29;20479;-77
2023/04/08 05:57:02;;;;;;;22.67;11.93;;;4.80;99.90;;;;;;4858466;29;20113;-77
2023/04/08 05:59:29;;;;;;;22.00;11.27;;;5.00;99.90;;;;;;4843025;29;20129;-77
2023/04/08 06:01:56;;;;;;;19.67;11.07;;;4.90;99.90;;;;;;4843445;29;20057;-77
2023/04/08 06:04:23;;;;;;;19.95;11.00;;;4.90;99.90;;;;;;4868488;29;20049;-78
2023/04/08 06:06:50;;;;;;;19.67;11.18;;;4.90;99.90;;;;;;4876466;29;20125;-77
2023/04/08 06:09:16;;;;;;;19.60;11.07;;;5.00;99.90;;;;;;4876742;29;20045;-77
2023/04/08 06:11:46;;;;;;;18.38;11.35;;;5.00;99.90;;;;;;4876578;29;20049;-77
2023/04/08 06:14:13;;;;;;;19.25;11.23;;;5.10;99.90;;;;;;4861317;29;20477;-77
2023/04/08 06:16:39;;;;;;;24.67;11.40;;;5.30;99.90;;;;;;4861471;29;20081;-78
2023/04/08 06:19:06;;;;;;;18.38;11.07;;;5.20;99.90;;;;;;4861360;29;20510;-77
2023/04/08 06:21:32;;;;;;;21.50;11.48;;;5.30;99.90;;;;;;4876425;29;20060;-78
2023/04/08 06:24:02;;;;;;;19.40;10.95;;;5.40;99.90;;;;;;4875981;29;20127;-77
2023/04/08 06:26:29;;;;;;;17.60;10.60;;;5.40;99.90;;;;;;4875570;29;20109;-77
2023/04/08 06:28:56;;;;;;;18.02;10.68;;;5.50;99.90;;;;;;4848117;29;20045;-77
2023/04/08 06:31:23;;;;;;;18.65;11.25;;;5.50;99.90;;;;;;4845884;29;20128;-78
2023/04/08 06:33:51;;;;;;;17.83;10.73;;;5.50;99.90;;;;;;4846242;29;20499;-77
2023/04/08 06:36:17;;;;;;;15.88;10.05;;;5.60;99.90;;;;;;4861108;29;20468;-78
2023/04/08 06:38:44;;;;;;;19.80;11.50;;;5.60;99.90;;;;;;4876087;29;20097;-77
2023/04/08 06:41:11;;;;;;;18.52;11.00;;;5.60;99.90;;;;;;4860858;29;20045;-78
2023/04/08 06:43:37;;;;;;;18.73;10.73;;;5.70;99.90;;;;;;4876012;29;20165;-78
2023/04/08 06:46:05;;;;;;;18.80;11.52;;;5.80;99.90;;;;;;4872849;29;20042;-77
2023/04/08 06:48:31;;;;;;;22.15;12.07;;;5.70;99.90;;;;;;4857751;29;20085;-78
2023/04/08 06:51:00;;;;;;;20.70;12.27;;;5.70;99.90;;;;;;4857656;29;20084;-77
2023/04/08 06:53:31;;;;;;;20.23;11.65;;;5.80;99.90;;;;;;4857638;29;20411;-78
2023/04/08 06:55:58;;;;;;;18.00;10.93;;;5.80;99.90;;;;;;4859934;29;20799;-78
2023/04/08 06:58:26;;;;;;;18.83;10.88;;;5.80;99.90;;;;;;4861431;29;20041;-79
2023/04/08 07:00:57;;;;;;;19.70;11.05;;;5.70;99.90;;;;;;4861178;29;20041;-79
2023/04/08 07:03:24;;;;;;;21.23;12.30;;;5.80;99.90;;;;;;4875933;29;20460;-78
2023/04/08 07:05:51;;;;;;;21.42;11.57;;;5.90;99.90;;;;;;4861083;29;20092;-79
2023/04/08 07:08:18;;;;;;;19.05;10.80;;;5.80;99.90;;;;;;4875788;29;20455;-79
2023/04/08 07:10:45;;;;;;;20.48;11.13;;;5.80;99.90;;;;;;4861096;29;20101;-78
2023/04/08 07:13:12;;;;;;;19.60;11.13;;;5.90;99.90;;;;;;4861188;29;20496;-78
2023/04/08 07:15:39;;;;;;;18.00;10.55;;;5.80;99.90;;;;;;4861046;29;20041;-79
2023/04/08 07:18:06;;;;;;;20.20;10.77;;;5.80;99.90;;;;;;4875754;29;20072;-79
2023/04/08 07:20:37;;;;;;;18.38;9.77;;;5.80;99.90;;;;;;4875812;29;20042;-79
2023/04/08 07:23:04;;;;;;;19.15;10.60;;;5.80;99.90;;;;;;4875946;29;20080;-79
2023/04/08 07:25:35;;;;;;;17.23;9.70;;;5.80;99.90;;;;;;4875896;29;20140;-79
2023/04/08 07:28:02;;;;;;;15.95;8.60;;;5.80;99.90;;;;;;4891377;29;20057;-79
2023/04/08 07:30:29;;;;;;;16.23;9.13;;;5.80;99.90;;;;;;4857590;29;20045;-79
2023/04/08 07:32:56;;;;;;;16.30;9.02;;;5.80;99.90;;;;;;4872790;29;20535;-78
2023/04/08 07:35:24;;;;;;;16.05;8.55;;;5.80;99.90;;;;;;4872935;29;20049;-79
2023/04/08 07:37:51;;;;;;;13.88;8.15;;;5.80;99.90;;;;;;4862299;29;20055;-79
2023/04/08 07:40:18;;;;;;;15.45;8.82;;;5.80;99.90;;;;;;4885648;29;20049;-78
2023/04/08 07:42:45;;;;;;;16.58;8.55;;;5.90;99.90;;;;;;4866687;29;20078;-79
2023/04/08 07:45:12;;;;;;;18.00;9.63;;;5.80;99.90;;;;;;4865063;29;20042;-78
2023/04/08 07:47:38;;;;;;;16.45;9.55;;;6.10;99.90;;;;;;4885034;29;20055;-79
2023/04/08 07:50:06;;;;;;;19.60;9.98;;;6.00;99.90;;;;;;4858550;29;20038;-79
2023/04/08 07:52:33;;;;;;;18.20;9.00;;;6.00;99.90;;;;;;4867680;29;20542;-79
2023/04/08 07:55:00;;;;;;;18.20;9.93;;;6.10;99.90;;;;;;4863610;29;20053;-78
2023/04/08 07:57:27;;;;;;;16.17;9.20;;;6.10;99.90;;;;;;4878965;29;20049;-78
2023/04/08 07:59:54;;;;;;;16.48;9.75;;;6.20;99.90;;;;;;4875555;29;20410;-78
2023/04/08 08:02:21;;;;;;;15.52;8.18;;;6.30;99.90;;;;;;4856701;29;20053;-78
2023/04/08 08:04:47;;;;;;;17.10;9.02;;;6.40;99.90;;;;;;4848561;29;20759;-78
2023/04/08 08:07:14;;;;;;;13.88;8.27;;;6.40;99.90;;;;;;4878429;29;20530;-78
2023/04/08 08:09:41;;;;;;;14.65;8.40;;;6.50;99.90;;;;;;4862775;29;20098;-78
2023/04/08 08:12:07;;;;;;;17.55;8.13;;;6.50;99.90;;;;;;4878709;29;20050;-79
2023/04/08 08:14:34;;;;;;;15.07;7.90;;;6.50;99.90;;;;;;4862655;29;20041;-77
2023/04/08 08:17:02;;;;;;;15.80;8.00;;;6.40;99.90;;;;;;4878538;29;20088;-78
2023/04/08 08:19:29;;;;;;;14.55;7.25;;;6.50;99.90;;;;;;4880174;29;20068;-78
2023/04/08 08:21:56;;;;;;;11.85;7.18;;;6.40;99.90;;;;;;4861438;29;20046;-78
2023/04/08 08:24:23;;;;;;;15.10;7.72;;;6.40;99.90;;;;;;4877573;29;20567;-78
2023/04/08 08:26:49;;;;;;;12.93;7.05;;;6.40;99.90;;;;;;4878624;29;20053;-79
2023/04/08 08:29:16;;;;;;;13.77;7.30;;;6.40;99.90;;;;;;4878240;29;20042;-78
2023/04/08 08:31:43;;;;;;;14.25;7.53;;;6.40;99.90;;;;;;4862931;29;20049;-78
2023/04/08 08:34:10;;;;;;;13.40;7.28;;;6.50;99.90;;;;;;4878616;29;20041;-79
2023/04/08 08:36:36;;;;;;;11.95;6.60;;;6.60;99.90;;;;;;4878302;29;20573;-78
2023/04/08 08:39:03;;;;;;;12.43;6.47;;;6.60;99.90;;;;;;4863370;29;20521;-79
2023/04/08 08:41:36;;;;;;;11.88;6.68;;;6.60;99.90;;;;;;4862833;29;20045;-78
2023/04/08 08:44:07;;;;;;;13.02;7.30;;;6.80;99.90;;;;;;4861258;29;20102;-78
2023/04/08 08:46:34;;;;;;;12.82;7.47;;;6.80;99.90;;;;;;4862607;29;20046;-78
2023/04/08 08:49:01;;;;;;;11.32;6.68;;;6.90;99.90;;;;;;4862442;29;20045;-78
2023/04/08 08:51:31;;;;;;;14.15;7.35;;;7.00;99.90;;;;;;4893190;29;20049;-91
2023/04/08 08:54:01;;;;;;;14.95;8.02;;;7.10;99.90;;;;;;4848634;29;20506;-79
2023/04/08 08:56:28;;;;;;;13.45;7.45;;;7.10;99.90;;;;;;4878576;29;20558;-79
2023/04/08 08:58:55;;;;;;;16.65;7.93;;;7.20;99.90;;;;;;4878267;29;20124;-79
2023/04/08 09:01:33;;;;;;;15.85;8.60;;;7.20;99.90;;;;;;4862870;29;20045;-79
2023/04/08 09:04:07;;;;;;;14.80;8.60;;;7.20;99.90;;;;;;4893327;29;20128;-79
2023/04/08 09:06:34;;;;;;;17.38;8.77;;;7.30;99.90;;;;;;4862585;29;20459;-78
2023/04/08 09:09:01;;;;;;;15.45;8.73;;;7.30;99.90;;;;;;4847661;29;20491;-79
2023/04/08 09:11:28;;;;;;;14.52;9.00;;;7.30;99.90;;;;;;4862658;29;20561;-79
2023/04/08 09:13:56;;;;;;;16.83;9.30;;;7.40;99.90;;;;;;4877883;29;20133;-79
2023/04/08 09:16:22;;;;;;;16.08;8.85;;;7.40;99.90;;;;;;4863161;29;20048;-79
2023/04/08 09:18:49;;;;;;;18.50;9.70;;;7.50;99.90;;;;;;4847547;29;20132;-78
2023/04/08 09:21:17;;;;;;;17.88;10.57;;;7.60;99.90;;;;;;4877471;29;20414;-79
2023/04/08 09:23:45;;;;;;;19.13;9.75;;;7.70;99.90;;;;;;4892650;29;20132;-79
2023/04/08 09:26:21;;;;;;;18.70;10.07;;;7.70;99.90;;;;;;4892966;29;20080;-79
2023/04/08 09:29:08;;;;;;;21.73;10.48;;;7.80;99.90;;;;;;4877286;29;20786;-79
2023/04/08 09:31:40;;;;;;;19.58;10.18;;;7.80;99.90;;;;;;4877561;29;20080;-79
2023/04/08 09:34:12;;;;;;;20.15;10.30;;;7.90;99.90;;;;;;4877488;29;20455;-79
2023/04/08 09:36:38;;;;;;;19.52;10.15;;;7.90;99.90;;;;;;4877275;29;20120;-78
2023/04/08 09:39:06;;;;;;;19.85;10.70;;;8.00;99.90;;;;;;4862745;29;20061;-78
2023/04/08 09:41:34;;;;;;;21.40;10.40;;;8.00;99.90;;;;;;4862092;29;20049;-78
2023/04/08 09:44:03;;;;;;;20.83;11.05;;;8.00;99.90;;;;;;4877421;29;20052;-79
2023/04/08 09:46:45;;;;;;;19.38;9.82;;;8.00;99.90;;;;;;4892485;29;20422;-79
2023/04/08 09:49:17;;;;;;;18.30;10.65;;;8.10;99.90;;;;;;4877347;29;20041;-79
2023/04/08 09:51:51;;;;;;;22.15;11.07;;;8.10;99.90;;;;;;4877392;29;20042;-79
2023/04/08 09:54:21;;;;;;;20.50;11.32;;;8.10;99.90;;;;;;4877827;29;20041;-81
2023/04/08 09:57:03;;;;;;;25.42;10.82;;;8.10;99.90;;;;;;4891932;29;20056;-79
2023/04/08 09:59:33;;;;;;;24.20;11.25;;;8.10;99.90;;;;;;4877236;29;20060;-80
2023/04/08 10:02:05;;;;;;;21.77;11.43;;;8.10;99.90;;;;;;4862599;29;20459;-79
2023/04/08 10:04:37;;;;;;;23.33;11.77;;;8.10;99.90;;;;;;4892485;29;20061;-79
2023/04/08 10:07:07;;;;;;;21.33;11.48;;;8.10;99.90;;;;;;4892266;29;20463;-79
2023/04/08 10:09:34;;;;;;;22.77;11.90;;;8.10;99.90;;;;;;4877316;29;20057;-79
2023/04/08 10:12:03;;;;;;;23.27;11.85;;;8.20;99.90;;;;;;4862012;29;20495;-79
2023/04/08 10:14:30;;;;;;;22.38;12.07;;;8.20;99.90;;;;;;4892533;29;20526;-79
2023/04/08 10:17:30;;;;;;;24.85;12.80;;;8.30;99.90;;;;;;4861976;29;20053;-79
2023/04/08 10:19:57;;;;;;;26.13;12.57;;;8.40;99.90;;;;;;4876904;29;20052;-79
2023/04/08 10:22:33;;;;;;;23.20;13.23;;;8.40;99.90;;;;;;4877260;29;20046;-79
2023/04/08 10:25:15;;;;;;;24.20;13.00;;;8.40;99.90;;;;;;4877114;29;20541;-79
2023/04/08 10:27:44;;;;;;;26.98;14.07;;;8.40;99.90;;;;;;4876877;29;20041;-79
2023/04/08 10:30:27;;;;;;;28.50;14.15;;;8.40;99.90;;;;;;4877344;29;20460;-79
2023/04/08 10:32:58;;;;;;;27.90;14.05;;;8.50;99.90;;;;;;4892325;29;20056;-79
2023/04/08 10:35:34;;;;;;;30.00;15.40;;;8.50;99.90;;;;;;4877099;29;20125;-79
2023/04/08 10:38:01;;;;;;;26.63;13.52;;;8.50;99.90;;;;;;4892256;29;20168;-79
2023/04/08 10:40:35;;;;;;;27.02;14.60;;;8.60;99.90;;;;;;4876835;29;20060;-79
2023/04/08 10:43:02;;;;;;;28.83;15.35;;;8.60;99.90;;;;;;4891856;29;20190;-79
2023/04/08 10:45:29;;;;;;;28.00;14.68;;;8.60;99.90;;;;;;4861932;29;20041;-79
2023/04/08 10:47:55;;;;;;;28.20;14.30;;;8.70;99.90;;;;;;4876540;29;20053;-79
2023/04/08 10:50:22;;;;;;;29.27;13.90;;;8.70;99.90;;;;;;4861840;29;20048;-79
2023/04/08 10:52:51;;;;;;;25.75;13.60;;;8.60;99.90;;;;;;4862056;29;20052;-80
2023/04/08 10:55:25;;;;;;;27.48;14.73;;;8.60;99.90;;;;;;4877009;29;20041;-79
2023/04/08 10:57:53;;;;;;;26.70;14.75;;;8.50;99.90;;;;;;4876593;29;20081;-80
2023/04/08 11:00:34;;;;;;;32.30;15.38;;;8.60;99.90;;;;;;4861897;29;20045;-80
2023/04/08 11:03:06;;;;;;;29.63;14.60;;;8.60;99.90;;;;;;4878996;29;20049;-79
2023/04/08 11:05:36;;;;;;;27.73;14.48;;;8.60;99.90;;;;;;4878611;29;20102;-79
2023/04/08 11:08:03;;;;;;;29.67;15.35;;;8.60;99.90;;;;;;4876336;29;20065;-80
2023/04/08 11:10:35;;;;;;;33.05;16.52;;;8.60;99.90;;;;;;4873422;29;20124;-79
2023/04/08 11:13:02;;;;;;;32.70;16.15;;;8.70;99.90;;;;;;4861874;29;20042;-80
2023/04/08 11:15:29;;;;;;;33.30;16.92;;;8.70;99.90;;;;;;4861774;29;20037;-79
2023/04/08 11:17:56;;;;;;;36.08;19.17;;;8.70;99.90;;;;;;4846411;29;20426;-80
2023/04/08 11:20:24;;;;;;;37.33;18.50;;;8.70;99.90;;;;;;4846730;29;20054;-80
2023/04/08 11:22:51;;;;;;;32.67;18.05;;;8.60;99.90;;;;;;4865371;29;20038;-80
2023/04/08 11:25:18;;;;;;;33.45;16.90;;;8.70;99.90;;;;;;4846164;29;20044;-79
2023/04/08 11:27:45;;;;;;;31.52;16.38;;;8.70;99.90;;;;;;4861663;29;20533;-79
2023/04/08 11:30:12;;;;;;;27.58;16.45;;;8.70;99.90;;;;;;4862016;29;20045;-80
2023/04/08 11:32:39;;;;;;;33.15;15.77;;;8.70;99.90;;;;;;4846366;29;20045;-80
2023/04/08 11:35:06;;;;;;;29.38;16.67;;;8.70;99.90;;;;;;4880122;29;20054;-80
2023/04/08 11:37:38;;;;;;;29.48;15.75;;;8.70;99.90;;;;;;4880332;29;20406;-80
2023/04/08 11:40:12;;;;;;;27.10;15.30;;;8.80;99.90;;;;;;4880141;29;20418;-80
2023/04/08 11:42:39;;;;;;;28.45;16.55;;;8.90;99.90;;;;;;4864371;29;20041;-80
2023/04/08 11:45:14;;;;;;;27.20;14.68;;;9.00;99.90;;;;;;4864537;29;20049;-80
2023/04/08 11:47:42;;;;;;;;;;;9.00;99.90;;;;;;4880024;29;20046;-80
2023/04/08 11:50:09;;;;;;;26.42;14.45;;;9.10;99.90;;;;;;4895354;29;19927;-80
2023/04/08 11:52:47;;;;;;;27.13;15.65;;;9.10;99.90;;;;;;4864281;29;20048;-79
2023/04/08 11:55:30;;;;;;;26.95;14.82;;;9.20;99.90;;;;;;4879432;29;20041;-79
2023/04/08 11:58:03;;;;;;;27.88;15.73;;;9.10;99.90;;;;;;4864218;29;20073;-80
2023/04/08 12:00:30;;;;;;;29.52;16.55;;;9.10;99.90;;;;;;4879602;29;20392;-80
2023/04/08 12:02:56;;;;;;;29.50;16.27;;;9.10;99.90;;;;;;4894584;29;20048;-80
2023/04/08 12:05:23;;;;;;;28.08;17.10;;;9.10;99.90;;;;;;4880029;29;20133;-80
2023/04/08 12:07:50;;;;;;;32.65;17.20;;;9.10;99.90;;;;;;4879199;29;20061;-82
2023/04/08 12:10:17;;;;;;;28.92;17.15;;;9.10;99.90;;;;;;4866481;29;20050;-89
2023/04/08 12:12:44;;;;;;;30.52;17.98;;;9.10;99.90;;;;;;4881158;29;20037;-87
2023/04/08 12:15:11;;;;;;;29.02;17.73;;;9.20;99.90;;;;;;4850430;29;20052;-83
2023/04/08 12:17:37;;;;;;;32.40;18.02;;;9.20;99.90;;;;;;4879373;29;20045;-84
2023/04/08 12:20:08;;;;;;;32.22;18.95;;;9.20;99.90;;;;;;4863560;29;20046;-83
2023/04/08 12:22:35;;;;;;;30.15;18.15;;;9.20;99.90;;;;;;4863053;29;20046;-84
2023/04/08 12:25:03;;;;;;;33.55;18.73;;;9.30;99.90;;;;;;4879239;29;20521;-83
2023/04/08 12:27:35;;;;;;;37.50;20.70;;;9.40;99.90;;;;;;4879948;29;20112;-83
2023/04/08 12:30:03;;;;;;;36.92;21.85;;;9.50;99.90;;;;;;4879400;29;20477;-84
2023/04/08 12:32:29;;;;;;;38.80;22.70;;;9.50;99.90;;;;;;4864038;29;20042;-83
2023/04/08 12:34:56;;;;;;;39.63;23.95;;;9.60;99.90;;;;;;4863816;29;20117;-83
2023/04/08 12:37:23;;;;;;;39.38;25.17;;;9.70;99.90;;;;;;4879178;29;20117;-83
2023/04/08 12:39:50;;;;;;;40.85;24.83;;;9.70;99.90;;;;;;4863779;29;20578;-83
2023/04/08 12:42:17;;;;;;;40.72;24.02;;;9.70;99.90;;;;;;4863805;29;20719;-83
2023/04/08 12:44:43;;;;;;;41.33;24.63;;;9.60;99.90;;;;;;4863757;29;20045;-83
2023/04/08 12:47:10;;;;;;;40.75;24.27;;;9.70;99.90;;;;;;4848515;29;20054;-83